This is the latest recevied weather packets stored in our database for station/object GW1482. If no packets are shown the sender has not sent any weather packets the latest 10 day(s).
| Time | Temp. | Humidity | Pressure | Rain* | Wind** | Luminosity | Snow |
|---|---|---|---|---|---|---|---|
| 1777929328 | 18.33° C | 55% | 998.3 hPa | 0 mm | - | - | - |
| 1777928990 | 18.33° C | 54% | 997.9 hPa | 0 mm | - | - | - |
| 1777927172 | 18.89° C | 51% | 997.9 hPa | 0 mm | - | - | - |
| 1777925741 | 20° C | 48% | 997.9 hPa | 0 mm | - | - | - |
| 1777923576 | 19.44° C | 49% | 997.9 hPa | 0 mm | - | - | - |
| 1777922842 | 20.56° C | 47% | 997.9 hPa | 0 mm | - | - | - |
| 1777921789 | 20° C | 47% | 997.9 hPa | 0 mm | - | - | - |
| 1777921053 | 20° C | 49% | 997.9 hPa | 0 mm | - | - | - |
| 1777920335 | 20° C | 47% | 997.9 hPa | 0 mm | - | - | - |
| 1777917800 | 18.89° C | 51% | 998.6 hPa | 0 mm | - | - | - |
| 1777917468 | 18.89° C | 52% | 998.9 hPa | 0 mm | - | - | - |
| 1777915633 | 17.22° C | 55% | 998.9 hPa | 0 mm | - | - | - |
| 1777913498 | 15° C | 62% | 999.6 hPa | 0 mm | - | - | - |
| 1777911690 | 13.89° C | 63% | 1000.3 hPa | 0 mm | - | - | - |
| 1777911312 | 14.44° C | 62% | 1000.6 hPa | 0 mm | - | - | - |
| 1777909155 | 14.44° C | 61% | 1000.3 hPa | 0 mm | - | - | - |
| 1777908790 | 14.44° C | 60% | 1000.3 hPa | 0 mm | - | - | - |
| 1777905223 | 13.89° C | 60% | 1000.6 hPa | 0 mm | - | - | - |
| 1777903777 | 13.33° C | 60% | 1000.3 hPa | 0 mm | - | - | - |
| 1777898370 | 10.56° C | 61% | 1000.3 hPa | 0 mm | - | - | - |
| 1777894049 | 8.33° C | 72% | 1000.3 hPa | 0 mm | - | - | - |
| 1777892250 | 7.78° C | 71% | 1000.3 hPa | 0 mm | - | - | - |
| 1777891872 | 7.78° C | 73% | 1000.3 hPa | 0 mm | - | - | - |
| 1777891514 | 7.78° C | 69% | 1000.6 hPa | 0 mm | - | - | - |
| 1777888309 | 7.22° C | 82% | 1000.6 hPa | 0 mm | - | - | - |
* Rain since midnight (hover to see other rain measurements)
** Current wind speed in m/s (hover to see current wind gust speed)